Time;durP1;ratioP1;P1;durP2;ratioP2;P2;SDS_P1;SDS_P2;PMS_P1;PMS_P2;Temp;Humidity;BMP_temperature;BMP_pressure;BME280_temperature;BME280_humidity;BME280_pressure;Samples;Min_cycle;Max_cycle;Signal;HPM_P1;HPM_P2
2022/11/03 00:04:26;;;;;;;43.15;22.85;;;;;;;9.16;95.74;99790.80;4252480;82;21061;-85
2022/11/03 00:10:38;;;;;;;38.38;22.10;;;;;;;9.12;95.78;99794.02;4308567;81;21076;-85
2022/11/03 00:16:45;;;;;;;40.75;21.73;;;;;;;9.10;95.87;99795.48;4313612;81;20995;-85
2022/11/03 00:22:46;;;;;;;;;;;;;;;8.95;95.98;99794.28;4427510;79;21055;-85
2022/11/03 00:35:33;;;;;;;37.58;17.57;;;;;;;8.86;96.54;99790.90;4427665;78;21088;-85
2022/11/03 00:41:38;;;;;;;38.50;19.37;;;;;;;8.81;97.07;99790.32;4420529;79;21048;-85
2022/11/03 00:48:28;;;;;;;35.60;18.05;;;;;;;8.74;96.92;99795.58;4421310;78;21404;-85
2022/11/03 00:54:04;;;;;;;34.85;17.80;;;;;;;8.70;97.63;99794.09;4416378;79;20972;-85
2022/11/03 01:00:08;;;;;;;37.40;19.90;;;;;;;8.71;97.71;99791.58;4427368;79;20976;-84
2022/11/03 01:12:46;;;;;;;39.03;18.67;;;;;;;8.40;96.69;99796.03;4419847;79;21021;-84
2022/11/03 01:18:48;;;;;;;36.42;18.40;;;;;;;8.20;96.80;99806.45;4394684;79;21061;-85
2022/11/03 01:24:53;;;;;;;29.92;17.77;;;;;;;7.97;96.97;99802.00;4418202;79;21031;-84
2022/11/03 01:31:08;;;;;;;34.40;19.17;;;;;;;7.83;96.94;99804.22;4429029;79;20986;-84
2022/11/03 01:37:13;;;;;;;40.08;19.27;;;;;;;7.62;96.30;99811.11;4410342;78;20968;-84
2022/11/03 01:43:21;;;;;;;33.02;17.57;;;;;;;7.34;96.34;99810.64;4418505;79;20971;-84
2022/11/03 01:50:04;;;;;;;33.35;16.73;;;;;;;7.03;96.13;99812.98;4436175;80;21488;-84
2022/11/03 01:56:15;;;;;;;29.48;15.70;;;;;;;6.97;97.34;99812.95;4252406;83;20982;-85
2022/11/03 02:02:16;;;;;;;34.58;16.07;;;;;;;6.83;97.10;99805.60;4327127;81;21071;-84
2022/11/03 02:08:40;;;;;;;24.12;14.55;;;;;;;6.69;97.43;99793.59;4331844;80;21067;-84
2022/11/03 02:14:53;;;;;;;29.52;15.85;;;;;;;6.58;97.35;99793.73;4259153;82;21056;-84
2022/11/03 02:21:08;;;;;;;31.80;16.93;;;;;;;6.40;96.98;99801.19;4282751;81;21029;-84
2022/11/03 02:27:12;;;;;;;26.57;15.00;;;;;;;6.24;97.05;99802.08;4310025;81;21092;-84
2022/11/03 02:33:33;;;;;;;19.67;11.33;;;;;;;6.07;97.22;99798.08;4294292;81;21082;-84
2022/11/03 02:39:44;;;;;;;23.80;13.95;;;;;;;6.01;98.70;99811.61;4270290;82;21568;-84
2022/11/03 02:45:49;;;;;;;27.93;14.68;;;;;;;6.00;97.68;99813.52;4289061;81;21028;-84
2022/11/03 02:52:05;;;;;;;24.55;13.68;;;;;;;5.81;97.21;99813.64;4285859;81;21097;-84
2022/11/03 02:58:58;;;;;;;18.53;10.20;;;;;;;5.61;97.39;99812.39;4354662;81;21505;-84
2022/11/03 03:05:03;;;;;;;20.12;11.80;;;;;;;5.54;97.98;99812.65;4274553;81;21761;-84
2022/11/03 03:11:06;;;;;;;19.17;11.45;;;;;;;5.40;98.12;99814.74;4294598;81;21620;-84
2022/11/03 03:17:53;;;;;;;21.93;10.93;;;;;;;5.39;99.25;99813.94;4410088;79;20980;-84
2022/11/03 03:24:02;;;;;;;21.82;11.18;;;;;;;5.54;99.21;99822.96;4304105;82;21599;-84
2022/11/03 03:30:06;;;;;;;23.25;12.37;;;;;;;5.59;99.78;99815.98;4414955;79;21458;-84
2022/11/03 03:36:14;;;;;;;21.52;11.50;;;;;;;5.54;99.20;99816.17;4420013;79;21004;-83
2022/11/03 03:42:16;;;;;;;19.98;9.83;;;;;;;5.36;98.23;99804.27;4407284;79;21029;-85
2022/11/03 03:48:18;;;;;;;21.50;9.85;;;;;;;5.12;98.45;99814.25;4420832;79;21043;-83
2022/11/03 04:00:50;;;;;;;20.63;10.87;;;;;;;5.19;98.63;99820.02;4405033;79;21609;-84
2022/11/03 04:07:45;;;;;;;19.27;11.03;;;;;;;4.98;98.52;99812.83;4414324;78;21060;-84
2022/11/03 04:26:16;;;;;;;19.55;10.85;;;;;;;4.47;98.85;99799.97;4288124;81;21082;-84
2022/11/03 04:32:25;;;;;;;20.60;11.53;;;;;;;4.52;99.42;99794.41;4277580;81;21068;-84
2022/11/03 04:38:28;;;;;;;21.93;11.93;;;;;;;4.33;98.57;99791.16;4294167;81;21948;-84
2022/11/03 04:44:29;;;;;;;20.85;12.20;;;;;;;4.25;99.05;99798.16;4300679;82;21046;-85
2022/11/03 04:50:30;;;;;;;22.02;12.28;;;;;;;4.18;98.87;99795.67;4289201;81;20984;-84
2022/11/03 04:56:32;;;;;;;21.27;10.72;;;;;;;4.06;98.83;99789.48;4278544;81;21102;-84
2022/11/03 05:02:34;;;;;;;25.27;11.57;;;;;;;4.04;98.93;99792.27;4257106;81;21043;-84
2022/11/03 05:08:35;;;;;;;23.90;12.43;;;;;;;3.82;98.25;99797.16;4276318;81;21014;-84
2022/11/03 05:14:37;;;;;;;20.30;11.68;;;;;;;3.67;98.56;99793.51;4287095;81;21069;-84
2022/11/03 05:21:13;;;;;;;20.77;11.80;;;;;;;3.56;98.61;99794.06;4288031;81;21965;-83
2022/11/03 05:27:20;;;;;;;22.77;11.53;;;;;;;3.49;99.33;99798.59;4296019;81;21022;-84
2022/11/03 05:33:35;;;;;;;27.10;13.13;;;;;;;3.37;98.83;99794.27;4294180;81;21980;-84
2022/11/03 05:39:40;;;;;;;22.20;11.57;;;;;;;3.31;99.19;99795.50;4283381;81;21090;-84
2022/11/03 05:45:42;;;;;;;24.92;12.58;;;;;;;3.25;99.18;99792.68;4289689;81;21003;-84
2022/11/03 05:51:45;;;;;;;24.63;13.65;;;;;;;3.27;99.63;99790.48;4281311;81;21098;-84
2022/11/03 05:57:47;;;;;;;23.75;11.70;;;;;;;3.23;99.30;99792.18;4283728;81;21046;-83
2022/11/03 06:10:37;;;;;;;17.73;10.13;;;;;;;3.31;100.00;99797.41;4286460;81;21082;-83
2022/11/03 06:17:01;;;;;;;17.67;9.70;;;;;;;3.48;100.00;99794.27;4290780;81;21114;-83
2022/11/03 06:23:02;;;;;;;22.10;12.43;;;;;;;3.62;100.00;99802.33;4265419;81;21981;-84
2022/11/03 06:29:04;;;;;;;24.35;12.37;;;;;;;3.78;100.00;99800.80;4281541;81;20994;-84
2022/11/03 06:35:09;;;;;;;23.75;11.83;;;;;;;3.72;100.00;99805.57;4293044;81;20992;-85
2022/11/03 06:41:25;;;;;;;23.83;12.28;;;;;;;3.82;100.00;99802.58;4309275;81;21053;-83
2022/11/03 06:47:28;;;;;;;32.40;16.90;;;;;;;3.96;100.00;99813.34;4285643;81;21142;-83
2022/11/03 06:53:33;;;;;;;38.10;23.52;;;;;;;4.14;100.00;99804.97;4291794;81;21067;-83
2022/11/03 07:06:27;;;;;;;69.75;41.90;;;;;;;4.45;100.00;99813.84;4270553;81;21090;-84
2022/11/03 07:12:35;;;;;;;71.80;43.75;;;;;;;4.85;100.00;99807.21;4286197;81;20998;-84
2022/11/03 07:25:30;;;;;;;70.03;33.28;;;;;;;6.17;100.00;99804.52;4297414;81;21078;-83
2022/11/03 07:31:32;;;;;;;52.53;25.37;;;;;;;6.93;100.00;99797.84;4291037;81;21574;-84
2022/11/03 07:37:33;;;;;;;41.45;21.65;;;;;;;7.34;100.00;99790.22;4287612;81;21025;-84
2022/11/03 07:43:37;;;;;;;45.80;21.68;;;;;;;7.86;100.00;99783.12;4301285;81;21441;-84
2022/11/03 07:49:43;;;;;;;43.20;20.90;;;;;;;8.45;100.00;99767.16;4284683;81;22056;-84
2022/11/03 07:55:58;;;;;;;;;;;;;;;9.20;100.00;99769.05;4301169;82;21046;-84
2022/11/03 08:29:34;;;;;;;24.80;12.40;;;;;;;12.30;98.74;99709.91;4234714;82;21010;-86
2022/11/03 08:56:33;;;;;;;15.80;8.70;;;;;;;15.22;93.29;99671.44;4271135;81;21476;-85
2022/11/03 09:09:32;;;;;;;13.78;6.33;;;;;;;16.33;90.04;99658.16;4346460;81;20987;-85
2022/11/03 09:22:17;;;;;;;9.43;3.20;;;;;;;17.28;88.23;99645.39;4270939;81;21011;-86
2022/11/03 09:28:19;;;;;;;5.70;2.17;;;;;;;17.75;86.71;99641.36;4323145;81;21065;-85
2022/11/03 09:41:52;;;;;;;6.25;2.85;;;;;;;18.08;80.98;99626.05;4267460;83;20979;-86
2022/11/03 09:48:25;;;;;;;7.15;2.75;;;;;;;17.52;71.57;99616.81;4286516;81;21009;-86
2022/11/03 10:07:36;;;;;;;7.65;2.47;;;;;;;18.16;72.10;99588.19;4296575;81;21007;-87
2022/11/03 10:14:35;;;;;;;9.30;3.30;;;;;;;18.73;70.78;99586.19;4345061;82;21027;-86
2022/11/03 10:34:06;;;;;;;6.58;2.60;;;;;;;17.87;66.43;99558.40;4315664;82;21038;-87
2022/11/03 11:06:58;;;;;;;7.35;3.22;;;;;;;16.89;62.40;99510.09;4029714;87;21046;-86
2022/11/03 11:13:26;;;;;;;6.67;2.72;;;;;;;16.86;61.00;99488.78;4027240;87;20991;-86
2022/11/03 11:26:46;;;;;;;9.25;2.98;;;;;;;16.54;61.79;99466.05;4012466;87;21064;-86
2022/11/03 11:33:17;;;;;;;10.65;3.40;;;;;;;16.15;58.92;99460.68;3977492;87;21171;-88
2022/11/03 11:39:44;;;;;;;4.80;2.55;;;;;;;15.77;59.78;99447.78;3932475;87;21211;-87
2022/11/03 11:46:25;;;;;;;7.45;2.70;;;;;;;15.76;60.20;99439.90;4034939;84;21894;-86
2022/11/03 11:53:05;;;;;;;8.93;3.25;;;;;;;15.82;61.06;99424.53;4162918;83;22035;-86
2022/11/03 11:59:23;;;;;;;5.90;2.83;;;;;;;15.69;60.01;99406.23;4116809;84;21082;-88
2022/11/03 12:05:34;;;;;;;8.38;3.17;;;;;;;15.63;60.66;99396.17;4126356;84;21130;-86
2022/11/03 12:11:52;;;;;;;9.40;3.47;;;;;;;15.50;60.50;99374.33;4117242;84;21071;-86
2022/11/03 12:17:55;;;;;;;7.22;3.35;;;;;;;15.53;60.87;99373.52;4120677;84;21962;-86
2022/11/03 12:24:27;;;;;;;11.03;3.92;;;;;;;15.38;60.99;99355.45;4198110;82;21082;-86
2022/11/03 12:30:31;;;;;;;10.40;2.90;;;;;;;15.29;61.27;99351.49;4173667;83;21041;-86
2022/11/03 12:43:48;;;;;;;5.53;2.40;;;;;;;15.35;61.57;99330.01;4175545;83;21054;-86
2022/11/03 12:50:08;;;;;;;11.18;3.30;;;;;;;15.31;61.47;99330.63;4093570;84;21050;-85
2022/11/03 12:56:15;;;;;;;5.97;2.58;;;;;;;15.30;61.57;99318.61;4126305;84;21100;-86
2022/11/03 13:02:16;;;;;;;9.48;2.92;;;;;;;15.16;61.49;99311.14;4204335;83;21937;-86
2022/11/03 13:08:28;;;;;;;5.42;2.65;;;;;;;15.18;61.69;99300.51;4167473;83;21012;-87
2022/11/03 13:14:33;;;;;;;8.38;3.37;;;;;;;15.15;61.69;99300.52;4212799;83;21140;-86
2022/11/03 13:20:35;;;;;;;8.50;3.33;;;;;;;15.12;61.76;99284.18;4189723;83;22092;-85
2022/11/03 13:26:36;;;;;;;9.10;3.95;;;;;;;15.03;61.76;99283.02;4121859;84;21012;-85
2022/11/03 13:32:40;;;;;;;11.25;4.37;;;;;;;14.96;61.85;99276.13;4124135;84;21587;-85
2022/11/03 13:38:44;;;;;;;9.18;3.67;;;;;;;14.90;61.96;99265.31;4179906;83;20990;-87
2022/11/03 13:45:27;;;;;;;11.73;4.08;;;;;;;14.81;61.91;99264.95;4172377;83;21102;-86
2022/11/03 13:51:41;;;;;;;11.88;4.72;;;;;;;14.69;62.06;99250.20;4189549;83;21006;-87
2022/11/03 13:57:42;;;;;;;10.68;5.35;;;;;;;14.49;62.27;99244.89;4141620;84;21986;-85
2022/11/03 14:17:44;;;;;;;10.90;4.70;;;;;;;14.09;63.03;99224.80;4191398;83;21006;-85
2022/11/03 14:23:46;;;;;;;12.23;5.75;;;;;;;13.91;63.42;99218.50;4187995;84;21019;-86
2022/11/03 14:29:52;;;;;;;14.38;5.65;;;;;;;13.76;63.88;99210.62;4174836;83;21031;-85
2022/11/03 14:35:54;;;;;;;12.88;5.17;;;;;;;13.55;64.20;99207.23;4173006;83;21042;-84
2022/11/03 14:42:02;;;;;;;16.00;6.05;;;;;;;13.41;64.55;99203.64;4177652;84;21034;-85
2022/11/03 14:48:03;;;;;;;16.25;5.72;;;;;;;13.22;64.78;99194.34;4160798;83;21086;-85
2022/11/03 14:54:04;;;;;;;14.78;5.05;;;;;;;13.02;65.10;99191.72;4163261;83;21054;-85
2022/11/03 15:00:09;;;;;;;12.53;5.42;;;;;;;12.85;65.33;99189.07;4172687;83;21588;-85
2022/11/03 15:06:13;;;;;;;11.57;5.22;;;;;;;12.65;65.60;99180.92;4174310;83;21028;-85
2022/11/03 15:12:14;;;;;;;18.20;6.80;;;;;;;12.46;65.93;99175.12;4166093;83;21054;-85
2022/11/03 15:25:10;;;;;;;18.27;8.68;;;;;;;11.98;66.79;99169.46;4196218;83;21091;-85
2022/11/03 15:31:12;;;;;;;20.27;7.15;;;;;;;11.57;67.27;99167.11;4195329;83;21120;-84
2022/11/03 15:37:14;;;;;;;14.18;7.90;;;;;;;11.29;67.75;99159.97;4196793;83;21134;-85
2022/11/03 15:43:16;;;;;;;18.60;8.45;;;;;;;11.06;68.28;99154.61;4130801;84;21561;-85
2022/11/03 15:49:17;;;;;;;19.30;8.40;;;;;;;10.89;68.75;99150.52;4124941;84;21972;-85
2022/11/03 16:02:22;;;;;;;20.82;8.75;;;;;;;10.51;69.78;99144.52;4170782;84;21998;-84
2022/11/03 16:08:29;;;;;;;16.67;9.10;;;;;;;10.31;70.34;99143.86;4179694;83;21027;-84
2022/11/03 16:14:31;;;;;;;18.40;9.78;;;;;;;10.15;70.71;99134.25;4132351;84;21641;-84
2022/11/03 16:20:32;;;;;;;23.38;11.45;;;;;;;10.07;71.52;99135.27;4187756;83;21093;-85
2022/11/03 16:26:34;;;;;;;22.22;10.78;;;;;;;10.05;71.92;99124.70;4174854;83;20973;-85
2022/11/03 16:32:35;;;;;;;23.87;12.20;;;;;;;10.08;72.40;99123.19;4182303;84;21675;-84
2022/11/03 16:38:37;;;;;;;37.75;17.45;;;;;;;10.09;72.56;99119.28;4114699;85;21020;-84
2022/11/03 16:44:38;;;;;;;30.50;14.70;;;;;;;10.07;72.87;99121.02;4185194;83;21033;-85
2022/11/03 16:50:39;;;;;;;45.05;18.17;;;;;;;10.05;73.34;99109.66;4123413;84;21575;-85
2022/11/03 16:56:43;;;;;;;39.38;17.40;;;;;;;10.03;73.65;99099.65;4170097;83;21011;-85
2022/11/03 17:02:46;;;;;;;34.58;18.20;;;;;;;10.01;73.88;99095.12;4124538;84;21995;-83
2022/11/03 17:08:47;;;;;;;39.03;21.30;;;;;;;9.98;74.41;99086.86;4178997;83;21602;-85
2022/11/03 17:14:48;;;;;;;36.68;19.52;;;;;;;10.00;75.10;99085.92;4189525;83;21060;-84
2022/11/03 17:20:50;;;;;;;35.88;18.80;;;;;;;10.06;75.45;99082.50;4149927;84;21027;-84
2022/11/03 17:27:07;;;;;;;40.70;19.87;;;;;;;10.13;75.68;99065.44;4201406;83;21004;-85
2022/11/03 17:33:16;;;;;;;38.83;19.42;;;;;;;10.13;75.91;99043.55;4207274;83;21471;-84
2022/11/03 17:39:27;;;;;;;44.90;21.10;;;;;;;10.06;76.10;99033.84;4156837;83;21031;-84
2022/11/03 17:45:40;;;;;;;41.68;20.70;;;;;;;9.90;76.29;99029.91;4183331;83;21074;-85
2022/11/03 17:51:42;;;;;;;38.83;19.92;;;;;;;9.78;76.75;99020.57;4184349;83;22028;-84
2022/11/03 17:57:44;;;;;;;36.80;19.35;;;;;;;9.64;77.06;99018.20;4165869;83;21028;-84
2022/11/03 18:03:46;;;;;;;47.48;22.82;;;;;;;9.50;77.57;99009.22;4098085;84;21008;-85
2022/11/03 18:09:48;;;;;;;38.67;21.00;;;;;;;9.41;77.72;99005.95;4182299;83;21124;-85
2022/11/03 18:16:09;;;;;;;44.90;20.90;;;;;;;9.33;78.18;99009.73;4212314;83;21520;-85
2022/11/03 18:22:11;;;;;;;36.48;17.87;;;;;;;9.32;78.63;99008.13;4098089;84;21083;-84
2022/11/03 18:28:22;;;;;;;41.30;19.10;;;;;;;9.35;79.08;99011.50;4097171;84;21072;-84
2022/11/03 18:34:25;;;;;;;36.45;18.75;;;;;;;9.36;79.41;99004.89;4113005;84;21059;-84
2022/11/03 18:40:28;;;;;;;49.25;24.07;;;;;;;9.38;79.67;98992.44;4111770;84;21096;-84
2022/11/03 18:46:29;;;;;;;35.73;19.23;;;;;;;9.39;79.78;98979.00;4181884;83;21966;-84
2022/11/03 18:52:30;;;;;;;35.92;18.40;;;;;;;9.38;80.03;98961.02;4182578;83;21014;-85
2022/11/03 18:58:32;;;;;;;39.60;19.05;;;;;;;9.38;80.31;98939.16;4078566;83;10000367;-86
2022/11/03 19:04:35;;;;;;;47.67;22.77;;;;;;;9.40;80.62;98937.42;4172745;84;21040;-84
2022/11/03 19:11:18;;;;;;;53.75;24.30;;;;;;;9.40;80.87;98936.86;4126040;84;21875;-85
2022/11/03 19:17:21;;;;;;;41.08;20.75;;;;;;;9.42;81.14;98924.98;4143115;84;21007;-84
2022/11/03 19:23:23;;;;;;;39.48;19.70;;;;;;;9.39;81.20;98916.73;4130701;84;21507;-84
2022/11/03 19:29:31;;;;;;;40.05;19.20;;;;;;;9.34;81.34;98901.45;4181219;83;21020;-85
2022/11/03 19:35:34;;;;;;;41.35;18.80;;;;;;;9.31;81.50;98902.76;4173756;83;21126;-84
2022/11/03 19:48:21;;;;;;;50.67;21.52;;;;;;;9.23;81.63;98879.23;3992016;87;21604;-84
2022/11/03 19:54:23;;;;;;;82.33;36.42;;;;;;;9.16;81.76;98866.25;4130625;85;21136;-84
2022/11/03 20:00:24;;;;;;;40.30;20.52;;;;;;;9.07;81.86;98863.00;4157834;83;21071;-85
2022/11/03 20:06:27;;;;;;;40.58;21.12;;;;;;;9.03;82.30;98857.28;4112667;84;21031;-84
2022/11/03 20:12:30;;;;;;;40.83;22.80;;;;;;;9.01;82.64;98848.09;4150730;83;21028;-85
2022/11/03 20:18:31;;;;;;;42.85;21.62;;;;;;;9.00;82.69;98847.09;4127683;84;21012;-84
2022/11/03 20:24:32;;;;;;;45.50;23.18;;;;;;;8.93;82.86;98834.13;4150589;84;21000;-85
2022/11/03 20:30:40;;;;;;;48.75;21.82;;;;;;;8.87;83.01;98826.05;4132194;84;22010;-84
2022/11/03 20:36:42;;;;;;;44.98;22.80;;;;;;;8.81;83.33;98831.61;4116902;85;21035;-84
2022/11/03 20:42:43;;;;;;;42.10;20.72;;;;;;;8.81;83.83;98822.63;4164768;83;21424;-84
2022/11/03 20:48:44;;;;;;;39.25;20.70;;;;;;;8.84;83.91;98808.24;4119797;84;21082;-84
2022/11/03 20:54:46;;;;;;;42.08;21.52;;;;;;;8.82;84.41;98806.45;4161702;84;21949;-84
2022/11/03 21:00:48;;;;;;;39.45;20.77;;;;;;;8.80;84.52;98804.09;4104829;84;22054;-85
2022/11/03 21:06:49;;;;;;;39.55;21.05;;;;;;;8.81;84.75;98792.61;4175622;83;22287;-84
2022/11/03 21:12:51;;;;;;;40.60;22.02;;;;;;;8.79;84.78;98794.91;4183582;83;21014;-84
2022/11/03 21:25:17;;;;;;;44.42;23.90;;;;;;;8.69;85.05;98770.99;4183902;83;21002;-85
2022/11/03 21:31:19;;;;;;;43.80;24.98;;;;;;;8.62;85.27;98770.30;4178633;83;21999;-84
2022/11/03 21:37:20;;;;;;;44.42;23.47;;;;;;;8.50;85.38;98769.16;4114734;84;21099;-84
2022/11/03 21:49:44;;;;;;;40.15;22.42;;;;;;;8.34;86.03;98754.06;4157797;84;21136;-84
2022/11/03 21:55:48;;;;;;;49.03;25.80;;;;;;;8.30;86.35;98749.14;4144971;83;21676;-85
2022/11/03 22:01:53;;;;;;;43.87;25.08;;;;;;;8.27;86.64;98749.28;4147480;83;21043;-85
2022/11/03 22:07:54;;;;;;;51.60;29.02;;;;;;;8.25;86.75;98743.99;4143545;84;21110;-84
2022/11/03 22:13:58;;;;;;;48.80;26.45;;;;;;;8.19;86.84;98734.52;4162558;83;21021;-85
2022/11/03 22:32:54;;;;;;;47.38;25.65;;;;;;;8.05;87.64;98709.16;4194351;84;21731;-85
2022/11/03 22:45:56;;;;;;;48.83;24.70;;;;;;;7.95;88.23;98698.28;4117022;85;21105;-85
2022/11/03 22:51:57;;;;;;;43.35;24.57;;;;;;;7.93;88.47;98686.19;4182321;83;21032;-84
2022/11/03 22:58:02;;;;;;;53.98;25.40;;;;;;;7.88;88.63;98674.22;4150025;84;21088;-85
2022/11/03 23:04:08;;;;;;;46.83;26.48;;;;;;;7.85;88.90;98661.33;4120222;85;21079;-84
2022/11/03 23:10:27;;;;;;;50.30;27.77;;;;;;;7.81;89.07;98650.95;4113899;85;21094;-85
2022/11/03 23:16:35;;;;;;;49.63;26.25;;;;;;;7.79;89.26;98651.89;4116707;85;21043;-85
2022/11/03 23:22:38;;;;;;;48.63;27.58;;;;;;;7.73;89.37;98636.44;4181183;83;21059;-84
2022/11/03 23:28:39;;;;;;;54.45;28.47;;;;;;;7.71;89.61;98630.56;4216231;84;21054;-84
2022/11/03 23:34:41;;;;;;;50.90;27.10;;;;;;;7.62;89.67;98616.41;4197556;83;21041;-85
2022/11/03 23:40:42;;;;;;;52.78;27.30;;;;;;;7.51;89.61;98615.44;4176820;83;21072;-85
2022/11/03 23:53:03;;;;;;;51.20;27.17;;;;;;;7.37;90.52;98608.95;4175429;83;21137;-84
2022/11/03 23:59:06;;;;;;;47.55;26.02;;;;;;;7.37;90.75;98600.78;4193412;83;21085;-85
